KTCC/TCC METAR and TAF weather

Enter ICAO airport designator
Station Type Date Time Source
KTCC METAR 2019/10/15 17:53 UTC NOAA

KTCC 151753Z AUTO 05016G25KT 10SM CLR 19/M03 A3015 RMK AO2 SLP171 T01941033 10206 20100 50014


Station Type Date Time Source
KTCC Decoded METAR 2019/10/15 17:53 UTC NOAA

TUCUMCARI MUNICIPAL AIRPORT , NM, United States (KTCC) 35-11N 103-36W 1235M
Oct 15, 2019 - 01:53 PM EDT / 2019.10.15 1753 UTC
Wind: from the NE (050 degrees) at 18 MPH (16 KT) gusting to 29 MPH (25 KT):0
Visibility: 10 mile(s):0
Sky conditions: clear
Temperature: 66.9 F (19.4 C)
Dew Point: 26.1 F (-3.3 C)
Relative Humidity: 21%
Pressure (altimeter): 30.15 in. Hg (1020 hPa)
Pressure tendency: 0.04 inches (1.4 hPa) higher than three hours ago
ob: KTCC 151753Z AUTO 05016G25KT 10SM CLR 19/M03 A3015 RMK AO2 SLP171 T01941033 10206 20100 50014
cycle: 18

Station Type Date Time Source
KTCC TAF 2019/10/15 18:27 UTC NOAA

TAF KTCC 151725Z 1518/1618 05014G22KT P6SM SKC
FM152300 07010KT P6SM SKC
FM160400 VRB06KT P6SM SKC
FM161500 23010KT P6SM SKC

Example: see airport list